Corsa — V2PZ2 — position and weather

sailwx.info

Track history (hours):
 
Tides and Currents Weather Stations Pressure Air Temp Water Temp Dewpoint Dewpoint Depression Visibility Wind Speed Wind Dir Waves Ship Positions

Corsa

Last reported at 2014-Jul-23 15:33 UTC. Time now 2014-Jul-24 20:03 UTC.
Position N 46°30' E 030°46'.

Length 101 m; draft 6.4 m.

Type: Cargo ship. MMSI: 304624000.

Date/timePositionNaut miles runAvg speedWind from/ knotsBaromVisibWave heightAir tempDewpointWater temp
2014-Jul-23 15:33N 46°30' E 030°46'4 0.4
2014-Jul-23 05:15N 46°28' E 030°52'0 0.0
2014-Jul-23 04:33N 46°28' E 030°52'0 0.0
2014-Jul-23 03:30N 46°28' E 030°52'2 0.3
2014-Jul-22 21:31N 46°27' E 030°52'9512.0
2014-Jul-22 13:33N 45°13' E 032°18'2712.1
2014-Jul-22 11:22N 44°53' E 032°43'1112.3
2014-Jul-22 10:30N 44°45' E 032°54'1112.1
2014-Jul-22 09:33N 44°37' E 033°04'4611.3
2014-Jul-22 05:30N 44°18' E 034°02'1212.4
2014-Jul-22 04:34N 44°18' E 034°19'1312.6
2014-Jul-22 03:34N 44°19' E 034°36'1312.9
2014-Jul-22 02:33N 44°20' E 034°54'1312.6
2014-Jul-22 01:33N 44°21' E 035°12'1212.4
2014-Jul-22 00:33N 44°22' E 035°29'1312.6
2014-Jul-21 23:33N 44°24' E 035°46'1312.8
2014-Jul-21 22:34N 44°26' E 036°04'1312.6
2014-Jul-21 21:33N 44°29' E 036°21'  
2014-Jul-16 06:33N 37°19' E 025°59'1311.6
2014-Jul-16 05:25N 37°08' E 026°08'2511.1
2014-Jul-16 03:12N 36°47' E 026°24'911.3
2014-Jul-16 02:24N 36°40' E 026°32'31710.6
2014-Jul-14 20:34N 31°57' E 029°24'  
Track history (hours):
 
Tides and Currents Weather Stations Pressure Air Temp Water Temp Dewpoint Dewpoint Depression Visibility Wind Speed Wind Dir Waves Ship Positions

Corsa

Last reported at 2014-Jul-23 15:33 UTC. Time now 2014-Jul-24 20:03 UTC.
Position N 46°30' E 030°46'.

Length 101 m; draft 6.4 m.

Type: Cargo ship. MMSI: 304624000.

Date/timePositionNaut miles runAvg speedWind from/ knotsBaromVisibWave heightAir tempDewpointWater temp
2014-Jul-23 15:33N 46°30' E 030°46'4 0.4
2014-Jul-23 05:15N 46°28' E 030°52'0 0.0
2014-Jul-23 04:33N 46°28' E 030°52'0 0.0
2014-Jul-23 03:30N 46°28' E 030°52'2 0.3
2014-Jul-22 21:31N 46°27' E 030°52'9512.0
2014-Jul-22 13:33N 45°13' E 032°18'2712.1
2014-Jul-22 11:22N 44°53' E 032°43'1112.3
2014-Jul-22 10:30N 44°45' E 032°54'1112.1
2014-Jul-22 09:33N 44°37' E 033°04'4611.3
2014-Jul-22 05:30N 44°18' E 034°02'1212.4
2014-Jul-22 04:34N 44°18' E 034°19'1312.6
2014-Jul-22 03:34N 44°19' E 034°36'1312.9
2014-Jul-22 02:33N 44°20' E 034°54'1312.6
2014-Jul-22 01:33N 44°21' E 035°12'1212.4
2014-Jul-22 00:33N 44°22' E 035°29'1312.6
2014-Jul-21 23:33N 44°24' E 035°46'1312.8
2014-Jul-21 22:34N 44°26' E 036°04'1312.6
2014-Jul-21 21:33N 44°29' E 036°21'  
2014-Jul-16 06:33N 37°19' E 025°59'1311.6
2014-Jul-16 05:25N 37°08' E 026°08'2511.1
2014-Jul-16 03:12N 36°47' E 026°24'911.3
2014-Jul-16 02:24N 36°40' E 026°32'31710.6
2014-Jul-14 20:34N 31°57' E 029°24'  

Dump ship's entire track history